createdAt,value
2023-03-02T00:02:05.942Z,23.4
2023-03-02T00:07:58.702Z,25.1
2023-03-02T00:13:51.870Z,24.2
2023-03-02T00:19:44.823Z,23.6
2023-03-02T00:25:36.613Z,23.4
2023-03-02T00:31:29.390Z,23.2
2023-03-02T00:37:22.450Z,23
2023-03-02T00:43:14.730Z,24.3
2023-03-02T00:49:07.872Z,24.4
2023-03-02T00:54:45.599Z,23.8
2023-03-02T01:00:38.545Z,23.4
2023-03-02T01:06:32.948Z,23.1
2023-03-02T01:12:25.928Z,22.9
2023-03-02T01:18:19.486Z,23.6
2023-03-02T01:24:12.793Z,24.8
2023-03-02T01:29:34.825Z,23.9
2023-03-02T01:35:27.687Z,23.4
2023-03-02T01:41:22.293Z,23.3
2023-03-02T01:46:58.537Z,23
2023-03-02T01:52:36.205Z,23.7
2023-03-02T01:58:30.478Z,24.8
2023-03-02T02:04:23.481Z,23.8
2023-03-02T02:10:16.544Z,23.3
2023-03-02T02:16:09.843Z,23
2023-03-02T02:22:02.478Z,22.7
2023-03-02T02:27:40.880Z,22.6
2023-03-02T02:33:34.085Z,22.7
2023-03-02T02:39:27.506Z,24.7
2023-03-02T02:45:04.282Z,24.3
2023-03-02T02:50:42.061Z,23.6
2023-03-02T02:56:34.645Z,23.1
2023-03-02T03:02:12.476Z,22.8
2023-03-02T03:07:33.865Z,22.6
2023-03-02T03:13:11.802Z,22.5
2023-03-02T03:19:04.669Z,22.4
2023-03-02T03:24:57.165Z,22.3
2023-03-02T03:30:50.173Z,22.1
2023-03-02T03:36:43.821Z,23.3
2023-03-02T03:42:37.193Z,24.9
2023-03-02T03:48:31.628Z,24.1
2023-03-02T03:54:26.000Z,23.3
2023-03-02T04:00:19.088Z,22.8
2023-03-02T04:05:41.663Z,22.6
2023-03-02T04:11:19.445Z,22.4
2023-03-02T04:16:40.461Z,22.3
2023-03-02T04:22:18.209Z,22.2
2023-03-02T04:27:55.797Z,23.4
2023-03-02T04:33:49.842Z,24.6
2023-03-02T04:39:41.454Z,23.9
2023-03-02T04:45:34.301Z,23.2
2023-03-02T04:51:31.018Z,22.8
2023-03-02T04:57:23.022Z,22.5
2023-03-02T05:03:17.708Z,22.4
2023-03-02T05:09:10.752Z,22.2
2023-03-02T05:15:02.450Z,22.1
2023-03-02T05:20:55.601Z,23.3
2023-03-02T05:26:49.043Z,24.9
2023-03-02T05:32:41.910Z,24
2023-03-02T05:38:35.371Z,23.3
2023-03-02T05:44:28.849Z,22.5
2023-03-02T05:50:21.836Z,22.4
2023-03-02T05:55:59.440Z,22.3
2023-03-02T06:01:37.333Z,22.1
2023-03-02T06:07:14.413Z,22.1
2023-03-02T06:12:51.370Z,22.4
2023-03-02T06:18:29.656Z,23.9
2023-03-02T06:24:06.481Z,24.1
2023-03-02T06:29:58.345Z,23.5
2023-03-02T06:35:36.899Z,22.9
2023-03-02T06:41:13.775Z,22.6
2023-03-02T06:46:52.387Z,22.3
2023-03-02T06:52:29.606Z,21.8
2023-03-02T06:58:07.419Z,22.7
2023-03-02T07:03:46.182Z,23.9
2023-03-02T07:09:24.957Z,23.1
2023-03-02T07:15:05.147Z,22.4
2023-03-02T07:20:42.634Z,22.2
2023-03-02T07:26:20.184Z,22
2023-03-02T07:31:57.390Z,23.2
2023-03-02T07:37:50.696Z,23.9
2023-03-02T07:43:43.843Z,22.8
2023-03-02T07:49:36.806Z,22.3
2023-03-02T07:55:14.128Z,22.1
2023-03-02T08:01:06.811Z,22.1
2023-03-02T08:06:59.570Z,23.1
2023-03-02T08:12:52.956Z,22.5
2023-03-02T08:18:45.688Z,22.3
2023-03-02T08:24:38.151Z,22.1
2023-03-02T08:30:15.098Z,21.8
2023-03-02T08:36:09.340Z,21.7
2023-03-02T08:42:02.621Z,21.5
2023-03-02T08:47:56.374Z,23
2023-03-02T08:53:49.801Z,22.9
2023-03-02T08:59:42.500Z,22.3
2023-03-02T09:05:36.347Z,22.1
2023-03-02T09:11:29.671Z,21.9
2023-03-02T09:17:22.161Z,21.7
2023-03-02T09:23:14.563Z,21.5
2023-03-02T09:29:07.495Z,22
2023-03-02T09:35:00.978Z,23.4
2023-03-02T09:40:53.962Z,22.5
2023-03-02T09:46:57.369Z,22.1
2023-03-02T09:52:56.121Z,21.9
2023-03-02T09:58:49.669Z,21.8
2023-03-02T10:04:43.114Z,21.6
2023-03-02T10:10:35.506Z,21.4
2023-03-02T10:16:32.138Z,23
2023-03-02T10:22:29.871Z,22.8
2023-03-02T10:28:25.286Z,22.1
2023-03-02T10:34:02.835Z,21.9
2023-03-02T10:39:56.348Z,21.8
2023-03-02T10:45:49.007Z,21.6
2023-03-02T10:51:48.953Z,21.4
2023-03-02T10:57:51.843Z,22.6
2023-03-02T11:03:44.516Z,23.1
2023-03-02T11:09:39.313Z,22.4
2023-03-02T11:15:33.136Z,22
2023-03-02T11:21:10.528Z,21.8
2023-03-02T11:26:47.800Z,21.6
2023-03-02T11:32:42.865Z,21.4
2023-03-02T11:38:46.752Z,22.2
2023-03-02T11:44:44.523Z,23.3
2023-03-02T11:50:45.675Z,22.5
2023-03-02T11:56:46.756Z,22.1
2023-03-02T12:02:27.204Z,21.8
2023-03-02T12:08:06.042Z,21.6
2023-03-02T12:13:59.145Z,21.4
2023-03-02T12:19:53.181Z,21.4
2023-03-02T12:25:46.026Z,22.9
2023-03-02T12:31:38.934Z,22.6
2023-03-02T12:37:32.563Z,22.1
2023-03-02T12:43:26.227Z,21.8
2023-03-02T12:49:24.135Z,21.7
2023-03-02T12:55:16.897Z,21.5
2023-03-02T13:01:10.560Z,21.3
2023-03-02T13:07:03.443Z,22.6
2023-03-02T13:13:00.668Z,22.9
2023-03-02T13:18:53.473Z,22.1
2023-03-02T13:24:45.912Z,21.8
2023-03-02T13:30:39.995Z,21.6
2023-03-02T13:36:34.054Z,21.4
2023-03-02T13:42:26.303Z,21.3
2023-03-02T13:48:20.715Z,22
2023-03-02T13:54:29.219Z,23.1
2023-03-02T14:00:22.176Z,22.3
2023-03-02T14:06:15.642Z,21.9
2023-03-02T14:12:09.915Z,21.7
2023-03-02T14:17:47.227Z,21.5
2023-03-02T14:23:40.659Z,21.4
2023-03-02T14:29:39.453Z,21.4
2023-03-02T14:35:32.587Z,22.9
2023-03-02T14:41:25.519Z,22.6
2023-03-02T14:47:29.485Z,22
2023-03-02T14:53:21.993Z,21.7
2023-03-02T14:59:16.963Z,21.5
2023-03-02T15:05:28.689Z,21.3
2023-03-02T15:17:13.254Z,20.9
2023-03-02T15:23:06.623Z,22.1
2023-03-02T15:29:02.348Z,23.2
2023-03-02T15:34:56.075Z,22.3
2023-03-02T15:40:48.946Z,21.8
2023-03-02T15:46:43.189Z,21.6
2023-03-02T15:52:36.838Z,21.3
2023-03-02T16:04:18.925Z,20.9
2023-03-02T16:10:12.810Z,21.6
2023-03-02T16:16:06.187Z,22.8
2023-03-02T16:21:58.768Z,22.2
2023-03-02T16:27:52.708Z,21.8
2023-03-02T16:33:46.353Z,21.4
2023-03-02T16:39:39.382Z,21.3
2023-03-02T16:51:11.387Z,21
2023-03-02T16:57:04.737Z,21.6
2023-03-02T17:02:58.689Z,23
2023-03-02T17:08:56.508Z,22.3
2023-03-02T17:14:49.770Z,21.6
2023-03-02T17:20:43.377Z,21.6
2023-03-02T17:26:36.140Z,21.3
2023-03-02T17:32:44.064Z,21.3
2023-03-02T17:38:36.511Z,22.6
2023-03-02T17:44:33.385Z,23.6
2023-03-02T17:50:26.145Z,22.7
2023-03-02T17:56:19.280Z,22.1
2023-03-02T18:02:19.990Z,21.6
2023-03-02T18:08:16.305Z,21.4
2023-03-02T18:14:09.489Z,21.3
2023-03-02T18:25:40.384Z,21.1
2023-03-02T18:31:34.971Z,22.9
2023-03-02T18:37:28.075Z,23.3
2023-03-02T18:43:05.017Z,22.3
2023-03-02T18:48:58.345Z,21.6
2023-03-02T18:54:51.638Z,21.4
2023-03-02T19:00:44.707Z,21.3
2023-03-02T19:06:37.161Z,21.3
2023-03-02T19:18:12.525Z,21.5
2023-03-02T19:24:05.547Z,22.5
2023-03-02T19:29:58.868Z,22.4
2023-03-02T19:35:36.704Z,21.9
2023-03-02T19:41:29.491Z,21.6
2023-03-02T19:47:23.149Z,21.4
2023-03-02T19:53:17.563Z,21.4
2023-03-02T19:59:10.434Z,21.3
2023-03-02T20:10:44.290Z,21.6
2023-03-02T20:16:46.550Z,22.6
2023-03-02T20:22:41.563Z,22.4
2023-03-02T20:28:33.976Z,22
2023-03-02T20:34:27.373Z,21.4
2023-03-02T20:40:24.829Z,21.4
2023-03-02T20:46:18.112Z,21.3
2023-03-02T20:52:11.703Z,21.3
2023-03-02T21:03:42.318Z,21.9
2023-03-02T21:09:38.111Z,22.7
2023-03-02T21:15:34.305Z,22.1
2023-03-02T21:21:13.264Z,21.8
2023-03-02T21:27:20.940Z,21.5
2023-03-02T21:33:13.792Z,21.3
2023-03-02T21:39:08.960Z,21.2
2023-03-02T21:45:02.972Z,21.2
2023-03-02T21:50:40.909Z,22.6
2023-03-02T21:56:36.080Z,23.7
2023-03-02T22:02:30.129Z,24.2
2023-03-02T22:08:22.516Z,23
2023-03-02T22:14:15.714Z,22.6
2023-03-02T22:20:10.048Z,23.6
2023-03-02T22:26:03.704Z,22.5
2023-03-02T22:31:55.497Z,21.9
2023-03-02T22:37:48.992Z,21.5
2023-03-02T22:43:42.679Z,21.2
2023-03-02T22:49:36.309Z,20.8
2023-03-02T22:55:29.904Z,21.4
2023-03-02T23:01:24.118Z,22.5
2023-03-02T23:07:17.315Z,22.9
2023-03-02T23:13:09.974Z,22
2023-03-02T23:19:05.220Z,21.6
2023-03-02T23:24:57.284Z,21.3
2023-03-02T23:30:49.811Z,21.2
2023-03-02T23:36:43.288Z,21.1
2023-03-02T23:42:35.324Z,22.3
2023-03-02T23:48:27.938Z,23.1
2023-03-02T23:54:21.461Z,22.4
